Time;durP1;ratioP1;P1;durP2;ratioP2;P2;SDS_P1;SDS_P2;PMS_P1;PMS_P2;Temp;Humidity;BMP_temperature;BMP_pressure;BME280_temperature;BME280_humidity;BME280_pressure;Samples;Min_cycle;Max_cycle;Signal;HPM_P1;HPM_P2
2023/12/05 00:00:35;;;;;;;33.00;14.63;;;1.90;99.90;;;;;;5034167;28;20033;-49
2023/12/05 00:03:02;;;;;;;38.38;15.52;;;2.10;99.90;;;;;;5034404;28;20489;-49
2023/12/05 00:05:28;;;;;;;33.20;14.63;;;1.60;99.90;;;;;;5033969;28;20111;-52
2023/12/05 00:07:55;;;;;;;33.90;15.60;;;2.00;99.90;;;;;;5034401;28;20046;-51
2023/12/05 00:10:21;;;;;;;32.45;15.10;;;2.10;99.90;;;;;;5033529;28;20517;-50
2023/12/05 00:12:47;;;;;;;34.45;15.55;;;1.50;99.90;;;;;;5034265;28;20041;-48
2023/12/05 00:15:13;;;;;;;30.45;14.55;;;1.30;99.90;;;;;;5033778;28;20045;-49
2023/12/05 00:17:38;;;;;;;32.35;15.55;;;2.10;99.90;;;;;;5033896;28;20037;-48
2023/12/05 00:20:05;;;;;;;31.92;15.13;;;2.40;99.90;;;;;;5033947;28;20059;-48
2023/12/05 00:22:31;;;;;;;37.28;16.02;;;2.10;99.90;;;;;;5034108;28;20396;-47
2023/12/05 00:24:56;;;;;;;36.90;16.42;;;1.30;99.90;;;;;;5033833;28;20033;-50
2023/12/05 00:27:22;;;;;;;31.35;14.73;;;1.50;99.90;;;;;;5032137;28;20664;-49
2023/12/05 00:29:48;;;;;;;36.28;16.55;;;1.90;99.90;;;;;;5033224;28;20037;-51
2023/12/05 00:32:14;;;;;;;32.65;15.18;;;2.30;99.90;;;;;;5031044;28;20041;-50
2023/12/05 00:34:39;;;;;;;30.95;14.82;;;2.00;99.90;;;;;;5033197;28;20033;-48
2023/12/05 00:37:05;;;;;;;30.45;14.05;;;1.90;99.90;;;;;;5033215;28;20064;-50
2023/12/05 00:39:31;;;;;;;37.22;15.73;;;1.70;99.90;;;;;;5033449;28;20081;-50
2023/12/05 00:41:56;;;;;;;33.17;15.13;;;1.70;99.90;;;;;;5033570;28;20385;-47
2023/12/05 00:44:22;;;;;;;30.85;14.65;;;1.70;99.90;;;;;;5033678;28;20029;-49
2023/12/05 00:46:48;;;;;;;30.55;14.48;;;1.80;99.90;;;;;;5033052;28;20037;-46
2023/12/05 00:49:13;;;;;;;30.13;14.60;;;1.30;99.90;;;;;;5032918;28;20060;-49
2023/12/05 00:51:39;;;;;;;32.67;14.70;;;1.30;99.90;;;;;;5031788;28;20401;-49
2023/12/05 00:54:05;;;;;;;27.30;13.55;;;2.10;99.90;;;;;;5032634;28;20515;-49
2023/12/05 00:56:31;;;;;;;30.77;13.95;;;2.10;99.90;;;;;;5031888;28;20037;-47
2023/12/05 00:58:56;;;;;;;27.52;14.00;;;1.90;99.90;;;;;;5030608;28;20045;-50
2023/12/05 01:01:23;;;;;;;29.13;14.80;;;1.30;99.90;;;;;;5031007;28;20084;-49
2023/12/05 01:03:51;;;;;;;30.17;15.32;;;2.10;99.90;;;;;;5032409;28;20041;-49
2023/12/05 01:06:17;;;;;;;29.02;12.68;;;1.50;99.90;;;;;;5032917;28;20043;-50
2023/12/05 01:08:43;;;;;;;30.15;14.18;;;2.00;99.90;;;;;;5031809;28;20124;-53
2023/12/05 01:11:12;;;;;;;30.05;14.52;;;1.20;99.90;;;;;;5032704;28;20140;-48
2023/12/05 01:13:38;;;;;;;31.35;13.73;;;1.90;99.90;;;;;;5032713;28;20073;-47
2023/12/05 01:16:04;;;;;;;29.40;13.35;;;1.40;99.90;;;;;;5032958;28;20503;-52
2023/12/05 01:18:30;;;;;;;28.30;13.18;;;1.70;99.90;;;;;;5031476;28;20080;-47
2023/12/05 01:20:56;;;;;;;28.70;12.85;;;1.40;99.90;;;;;;5033062;28;20042;-48
2023/12/05 01:23:22;;;;;;;29.10;14.18;;;1.10;99.90;;;;;;5032928;28;20568;-51
2023/12/05 01:25:48;;;;;;;29.23;14.70;;;1.90;99.90;;;;;;5032390;28;20108;-50
2023/12/05 01:28:14;;;;;;;27.50;14.02;;;1.20;99.90;;;;;;5033031;28;20129;-48
2023/12/05 01:30:41;;;;;;;29.88;13.80;;;1.30;99.90;;;;;;5032383;28;20049;-52
2023/12/05 01:33:07;;;;;;;30.13;14.93;;;2.00;99.90;;;;;;5032480;28;20567;-49
2023/12/05 01:35:33;;;;;;;30.42;14.35;;;1.90;99.90;;;;;;5032405;28;20045;-50
2023/12/05 01:37:58;;;;;;;27.83;13.68;;;1.10;99.90;;;;;;5032362;28;20060;-51
2023/12/05 01:40:24;;;;;;;28.35;13.35;;;2.10;99.90;;;;;;5030765;28;20037;-50
2023/12/05 01:42:50;;;;;;;29.10;14.07;;;2.00;99.90;;;;;;5032587;28;20112;-48
2023/12/05 01:45:15;;;;;;;32.45;14.98;;;1.80;99.90;;;;;;5032285;28;20037;-49
2023/12/05 01:47:41;;;;;;;32.58;15.70;;;1.20;99.90;;;;;;5032409;28;20488;-50
2023/12/05 01:50:33;;;;;;;30.48;14.90;;;1.50;99.90;;;;;;5032432;28;20034;-52
2023/12/05 01:53:04;;;;;;;28.45;13.63;;;1.90;99.90;;;;;;5028951;28;20146;-49
2023/12/05 01:55:31;;;;;;;29.70;13.98;;;1.40;99.90;;;;;;5032013;28;20045;-50
2023/12/05 01:57:57;;;;;;;27.90;14.10;;;1.50;99.90;;;;;;5029898;28;20042;-47
2023/12/05 02:00:24;;;;;;;30.98;14.13;;;1.90;99.90;;;;;;5031749;28;20042;-50
2023/12/05 02:02:50;;;;;;;27.45;14.02;;;1.10;99.90;;;;;;5031470;28;20037;-47
2023/12/05 02:05:16;;;;;;;31.95;15.98;;;1.90;99.90;;;;;;5031289;28;20493;-49
2023/12/05 02:07:42;;;;;;;29.40;14.85;;;1.30;99.90;;;;;;5031651;28;20370;-49
2023/12/05 02:10:09;;;;;;;30.02;13.88;;;1.10;99.90;;;;;;5031796;28;20045;-46
2023/12/05 02:12:41;;;;;;;30.95;14.13;;;1.90;99.90;;;;;;5032129;28;20394;-49
2023/12/05 02:15:07;;;;;;;31.98;15.10;;;1.40;99.90;;;;;;5031937;28;20431;-50
2023/12/05 02:17:57;;;;;;;32.63;16.55;;;1.70;99.90;;;;;;5031885;28;20033;-49
2023/12/05 02:20:30;;;;;;;31.83;14.52;;;1.20;99.90;;;;;;5031165;28;20048;-50
2023/12/05 02:23:02;;;;;;;32.97;15.95;;;1.10;99.90;;;;;;5031639;28;20041;-48
2023/12/05 02:25:47;;;;;;;33.22;15.93;;;2.00;99.90;;;;;;5031301;28;20041;-52
2023/12/05 02:28:13;;;;;;;34.75;15.23;;;1.10;99.90;;;;;;5031405;28;20125;-55
2023/12/05 02:30:38;;;;;;;28.88;14.68;;;1.90;99.90;;;;;;5031603;28;20041;-50
2023/12/05 02:33:04;;;;;;;33.30;15.57;;;1.50;99.90;;;;;;5031081;28;20083;-49
2023/12/05 02:35:30;;;;;;;33.05;16.08;;;1.20;99.90;;;;;;5031343;28;20110;-48
2023/12/05 02:38:05;;;;;;;34.03;15.82;;;1.90;99.90;;;;;;5031339;28;20560;-49
2023/12/05 02:40:41;;;;;;;31.55;15.43;;;1.90;99.90;;;;;;5031343;28;20037;-45
2023/12/05 02:43:15;;;;;;;35.60;15.00;;;1.90;99.90;;;;;;5031227;28;20044;-50
2023/12/05 02:45:44;;;;;;;35.58;16.42;;;1.90;99.90;;;;;;5031062;28;20116;-48
2023/12/05 02:48:11;;;;;;;30.35;14.93;;;1.10;99.90;;;;;;5030823;28;20041;-50
2023/12/05 02:50:37;;;;;;;34.33;15.30;;;1.60;99.90;;;;;;5030725;28;20048;-50
2023/12/05 02:53:03;;;;;;;33.03;16.17;;;1.60;99.90;;;;;;5031191;28;20041;-50
2023/12/05 02:55:28;;;;;;;37.58;16.42;;;1.60;99.90;;;;;;5031307;28;20489;-52
2023/12/05 02:57:54;;;;;;;35.92;15.05;;;1.80;99.90;;;;;;5030994;28;20048;-51
2023/12/05 03:00:20;;;;;;;36.67;16.40;;;1.20;99.90;;;;;;5031204;28;20504;-51
2023/12/05 03:02:45;;;;;;;33.15;16.35;;;2.00;99.90;;;;;;5030469;28;20045;-53
2023/12/05 03:05:11;;;;;;;34.20;16.67;;;1.60;99.90;;;;;;5030891;28;20033;-51
2023/12/05 03:07:37;;;;;;;34.90;14.85;;;1.30;99.90;;;;;;5030579;28;20045;-51
2023/12/05 03:10:04;;;;;;;32.05;15.88;;;1.10;99.90;;;;;;5030809;28;20444;-52
2023/12/05 03:12:33;;;;;;;35.28;16.92;;;1.90;99.90;;;;;;5030282;28;20091;-50
2023/12/05 03:15:00;;;;;;;36.97;16.50;;;1.90;99.90;;;;;;5031082;28;20045;-51
2023/12/05 03:17:25;;;;;;;35.55;16.75;;;1.20;99.90;;;;;;5030915;28;20103;-47
2023/12/05 03:19:51;;;;;;;34.83;16.83;;;1.90;99.90;;;;;;5030772;28;20432;-52
2023/12/05 03:22:17;;;;;;;32.63;15.30;;;1.20;99.90;;;;;;5030592;28;20392;-50
2023/12/05 03:24:43;;;;;;;36.00;16.05;;;1.20;99.90;;;;;;5031027;28;20044;-49
2023/12/05 03:27:08;;;;;;;34.90;16.10;;;2.10;99.90;;;;;;5030027;28;20049;-49
2023/12/05 03:29:34;;;;;;;33.83;16.33;;;1.20;99.90;;;;;;5030481;28;20080;-48
2023/12/05 03:32:00;;;;;;;34.83;15.65;;;1.90;99.90;;;;;;5031860;28;20045;-49
2023/12/05 03:34:26;;;;;;;37.42;18.10;;;2.00;99.90;;;;;;5034705;28;20049;-50
2023/12/05 03:36:52;;;;;;;32.42;16.45;;;1.90;99.90;;;;;;5034740;28;20039;-49
2023/12/05 03:39:17;;;;;;;36.22;16.25;;;1.60;99.90;;;;;;5034321;28;20124;-48
2023/12/05 03:41:45;;;;;;;34.35;16.75;;;1.70;99.90;;;;;;5034259;28;20045;-49
2023/12/05 03:44:11;;;;;;;35.92;16.38;;;2.10;99.90;;;;;;5029705;28;20048;-49
2023/12/05 03:46:37;;;;;;;34.85;16.77;;;1.20;99.90;;;;;;5026437;28;20037;-47
2023/12/05 03:49:03;;;;;;;32.80;15.82;;;2.00;99.90;;;;;;5023953;28;20421;-48
2023/12/05 03:51:28;;;;;;;37.22;18.05;;;2.00;99.90;;;;;;5026352;28;20446;-49
2023/12/05 03:53:54;;;;;;;40.78;17.83;;;1.90;99.90;;;;;;5024168;28;20481;-48
2023/12/05 03:56:20;;;;;;;35.08;16.30;;;2.00;99.90;;;;;;5026577;28;20030;-48
2023/12/05 03:58:45;;;;;;;37.47;17.25;;;2.00;99.90;;;;;;5026484;28;20077;-48
2023/12/05 04:01:11;;;;;;;42.78;17.77;;;1.90;99.90;;;;;;5025453;28;20036;-49
2023/12/05 04:03:37;;;;;;;39.38;17.92;;;2.10;99.90;;;;;;5024295;28;20037;-49
2023/12/05 04:06:03;;;;;;;36.47;16.95;;;2.00;99.90;;;;;;5025958;28;20051;-49
2023/12/05 04:08:29;;;;;;;39.13;18.15;;;1.80;99.90;;;;;;5025224;28;20037;-52
2023/12/05 04:10:55;;;;;;;36.22;16.92;;;1.50;99.90;;;;;;5025303;28;20137;-50
2023/12/05 04:13:20;;;;;;;35.75;17.73;;;2.10;99.90;;;;;;5025526;28;20049;-52
2023/12/05 04:15:46;;;;;;;41.28;17.77;;;1.20;99.90;;;;;;5026386;28;20030;-51
2023/12/05 04:18:12;;;;;;;38.17;18.13;;;1.20;99.90;;;;;;5028097;28;20394;-50
2023/12/05 04:20:37;;;;;;;33.00;16.88;;;1.40;99.90;;;;;;5031753;28;20037;-51
2023/12/05 04:23:03;;;;;;;37.53;17.00;;;1.40;99.90;;;;;;5032129;28;20105;-50
2023/12/05 04:25:29;;;;;;;39.75;18.92;;;1.30;99.90;;;;;;5031090;28;20041;-47
2023/12/05 04:27:54;;;;;;;34.40;17.25;;;2.20;99.90;;;;;;5033699;28;20389;-53
2023/12/05 04:30:20;;;;;;;38.95;18.42;;;1.40;99.90;;;;;;5033524;28;20041;-52
2023/12/05 04:32:46;;;;;;;43.08;18.95;;;2.10;99.90;;;;;;5033125;28;20041;-48
2023/12/05 04:35:12;;;;;;;39.28;17.17;;;2.00;99.90;;;;;;5033368;28;20461;-50
2023/12/05 04:37:38;;;;;;;37.22;17.77;;;2.10;99.90;;;;;;5033349;28;20065;-49
2023/12/05 04:40:05;;;;;;;39.63;18.27;;;2.10;99.90;;;;;;5032960;28;20123;-49
2023/12/05 04:42:31;;;;;;;39.45;18.75;;;2.10;99.90;;;;;;5032526;28;20136;-50
2023/12/05 04:44:56;;;;;;;37.20;17.88;;;1.90;99.90;;;;;;5032786;28;20123;-51
2023/12/05 04:47:22;;;;;;;37.00;17.17;;;1.90;99.90;;;;;;5032870;28;20040;-51
2023/12/05 04:49:48;;;;;;;39.70;19.58;;;1.70;99.90;;;;;;5032222;28;20038;-51
2023/12/05 04:52:13;;;;;;;40.88;18.60;;;1.90;99.90;;;;;;5033417;28;20068;-47
2023/12/05 04:54:39;;;;;;;37.65;17.88;;;1.50;99.90;;;;;;5033345;28;20033;-53
2023/12/05 04:57:05;;;;;;;40.90;18.20;;;1.90;99.90;;;;;;5033622;28;20037;-49
2023/12/05 04:59:31;;;;;;;38.35;17.63;;;1.80;99.90;;;;;;5033204;28;20084;-49
2023/12/05 05:01:56;;;;;;;35.83;16.90;;;1.50;99.90;;;;;;5032997;28;20127;-51
2023/12/05 05:04:22;;;;;;;40.08;19.25;;;2.10;99.90;;;;;;5014656;28;20473;-50
2023/12/05 05:06:48;;;;;;;38.80;18.38;;;1.80;99.90;;;;;;5031971;28;20438;-47
2023/12/05 05:09:13;;;;;;;40.22;17.70;;;1.80;99.90;;;;;;5032888;28;20033;-47
2023/12/05 05:11:39;;;;;;;37.53;17.63;;;1.50;99.90;;;;;;5033089;28;20045;-48
2023/12/05 05:14:06;;;;;;;40.28;17.73;;;1.80;99.90;;;;;;5032968;28;20033;-49
2023/12/05 05:16:31;;;;;;;38.33;18.45;;;2.00;99.90;;;;;;5032839;28;20049;-49
2023/12/05 05:18:59;;;;;;;41.15;18.33;;;1.40;99.90;;;;;;5032504;28;20046;-49
2023/12/05 05:21:25;;;;;;;42.47;18.42;;;2.00;99.90;;;;;;5033124;28;20418;-49
2023/12/05 05:23:50;;;;;;;40.20;19.45;;;1.30;99.90;;;;;;5031489;28;20072;-50
2023/12/05 05:26:16;;;;;;;40.72;17.75;;;1.60;99.90;;;;;;5032746;28;20033;-50
2023/12/05 05:28:41;;;;;;;42.38;18.15;;;1.70;99.90;;;;;;5032640;28;20473;-48
2023/12/05 05:31:07;;;;;;;38.72;18.08;;;1.90;99.90;;;;;;5032504;28;20523;-48
2023/12/05 05:33:33;;;;;;;39.03;18.00;;;1.20;99.90;;;;;;5032743;28;20128;-50
2023/12/05 05:35:58;;;;;;;39.22;18.00;;;2.10;99.90;;;;;;5032749;28;20041;-51
2023/12/05 05:38:24;;;;;;;43.85;18.60;;;2.10;99.90;;;;;;5032370;28;20041;-49
2023/12/05 05:40:50;;;;;;;36.92;17.00;;;1.50;99.90;;;;;;5032436;28;20037;-51
2023/12/05 05:43:15;;;;;;;38.30;17.95;;;2.10;99.90;;;;;;5032691;28;20124;-47
2023/12/05 05:45:41;;;;;;;43.03;19.08;;;1.60;99.90;;;;;;5032645;28;20041;-50
2023/12/05 05:48:07;;;;;;;42.90;19.33;;;1.80;99.90;;;;;;5032516;28;20072;-50
2023/12/05 05:50:32;;;;;;;41.53;18.10;;;1.20;99.90;;;;;;5032092;28;20072;-49
2023/12/05 05:52:58;;;;;;;42.88;19.08;;;1.70;99.90;;;;;;5032218;28;20401;-48
2023/12/05 05:55:24;;;;;;;43.95;18.60;;;1.40;99.90;;;;;;5029547;28;20045;-48
2023/12/05 05:57:51;;;;;;;41.42;19.63;;;2.10;99.90;;;;;;5030645;28;20046;-51
2023/12/05 06:00:17;;;;;;;42.83;20.50;;;1.40;99.90;;;;;;5032232;28;20041;-48
2023/12/05 06:02:44;;;;;;;42.15;19.48;;;1.30;99.90;;;;;;5031873;28;20059;-50
2023/12/05 06:05:10;;;;;;;45.63;20.52;;;1.20;99.90;;;;;;5032073;28;20033;-50
2023/12/05 06:07:36;;;;;;;45.72;19.98;;;1.90;99.90;;;;;;5031671;28;20485;-50
2023/12/05 06:10:02;;;;;;;49.35;20.52;;;1.20;99.90;;;;;;5031424;28;20065;-50
2023/12/05 06:12:28;;;;;;;50.13;21.40;;;1.30;99.90;;;;;;5031388;28;20124;-51
2023/12/05 06:14:54;;;;;;;45.65;20.27;;;2.60;99.90;;;;;;5032096;28;20085;-49
2023/12/05 06:17:20;;;;;;;49.65;20.50;;;1.20;99.90;;;;;;5031859;28;20124;-50
2023/12/05 06:19:45;;;;;;;47.90;20.90;;;1.90;99.90;;;;;;5031382;28;20521;-51
2023/12/05 06:22:12;;;;;;;43.90;20.35;;;2.10;99.90;;;;;;5031503;28;20175;-51
2023/12/05 06:24:38;;;;;;;48.00;20.42;;;2.30;99.90;;;;;;5031709;28;20041;-52
2023/12/05 06:27:04;;;;;;;48.75;20.70;;;1.20;99.90;;;;;;5030332;28;20080;-49
2023/12/05 06:29:30;;;;;;;47.65;20.35;;;2.00;99.90;;;;;;5031734;28;20124;-51
2023/12/05 06:31:56;;;;;;;49.15;21.40;;;1.90;99.90;;;;;;5030942;28;20437;-53
2023/12/05 06:34:22;;;;;;;52.17;22.23;;;2.40;99.90;;;;;;5031577;28;20069;-48
2023/12/05 06:36:47;;;;;;;49.67;21.17;;;1.80;99.90;;;;;;5031117;28;20091;-48
2023/12/05 06:39:13;;;;;;;49.63;22.25;;;2.00;99.90;;;;;;5031465;28;20041;-50
2023/12/05 06:41:39;;;;;;;47.20;20.60;;;1.20;99.90;;;;;;5031540;28;20095;-49
2023/12/05 06:44:04;;;;;;;45.20;20.30;;;1.30;99.90;;;;;;5031461;28;20029;-48
2023/12/05 06:46:30;;;;;;;47.78;21.65;;;1.30;99.90;;;;;;5031449;28;20117;-49
2023/12/05 06:48:57;;;;;;;52.05;21.50;;;1.60;99.90;;;;;;5031183;28;20053;-48
2023/12/05 06:51:23;;;;;;;54.42;21.67;;;1.10;99.90;;;;;;5029776;28;20386;-48
2023/12/05 06:53:49;;;;;;;53.20;21.80;;;1.20;99.90;;;;;;5030459;28;20045;-54
2023/12/05 06:56:16;;;;;;;52.83;21.83;;;2.10;99.90;;;;;;5030511;28;20103;-49
2023/12/05 06:58:42;;;;;;;51.47;21.70;;;1.60;99.90;;;;;;5030852;28;20087;-52
2023/12/05 07:01:08;;;;;;;49.92;22.50;;;1.40;99.90;;;;;;5029938;28;20045;-49
2023/12/05 07:03:34;;;;;;;52.67;23.85;;;1.30;99.90;;;;;;5030220;28;20032;-50
2023/12/05 07:05:59;;;;;;;50.47;23.13;;;1.70;99.90;;;;;;5030689;28;20195;-50
2023/12/05 07:08:26;;;;;;;56.40;23.88;;;1.80;99.90;;;;;;5030567;28;20049;-48
2023/12/05 07:10:52;;;;;;;59.45;23.83;;;1.60;99.90;;;;;;5029016;28;20547;-51
2023/12/05 07:13:18;;;;;;;53.45;21.65;;;2.10;99.90;;;;;;5029157;28;20045;-51
2023/12/05 07:15:44;;;;;;;49.97;22.40;;;1.50;99.90;;;;;;5030459;28;20041;-50
2023/12/05 07:18:10;;;;;;;55.97;22.70;;;2.80;99.90;;;;;;5030344;28;20393;-52
2023/12/05 07:20:35;;;;;;;55.72;22.13;;;1.90;99.90;;;;;;5030305;28;20076;-49
2023/12/05 07:23:01;;;;;;;54.95;22.33;;;2.00;99.90;;;;;;5024226;28;20037;-52
2023/12/05 07:25:27;;;;;;;50.42;22.88;;;2.10;99.90;;;;;;5022542;28;20135;-49
2023/12/05 07:27:52;;;;;;;51.95;23.10;;;2.30;99.90;;;;;;5028114;28;20037;-51
2023/12/05 07:30:18;;;;;;;50.70;21.30;;;1.20;99.90;;;;;;5029857;28;20374;-53
2023/12/05 07:32:44;;;;;;;55.55;24.88;;;1.10;99.90;;;;;;5029855;28;20034;-49
2023/12/05 07:35:10;;;;;;;57.13;23.35;;;1.90;99.90;;;;;;5029962;28;20049;-50
2023/12/05 07:37:35;;;;;;;53.28;23.50;;;2.10;99.90;;;;;;5029974;28;20378;-50
2023/12/05 07:40:01;;;;;;;51.05;22.30;;;1.10;99.90;;;;;;5030290;28;20033;-50
2023/12/05 07:42:27;;;;;;;56.15;23.83;;;1.10;99.90;;;;;;5030256;28;20034;-47
2023/12/05 07:44:52;;;;;;;56.53;22.95;;;1.40;99.90;;;;;;5027394;28;20175;-50
2023/12/05 07:47:18;;;;;;;52.40;23.27;;;2.00;99.90;;;;;;5023671;28;20046;-48
2023/12/05 07:49:47;;;;;;;53.60;22.00;;;1.40;99.90;;;;;;5029821;28;20038;-50
2023/12/05 07:52:12;;;;;;;50.80;21.63;;;1.90;99.90;;;;;;5029009;28;20086;-47
2023/12/05 07:54:38;;;;;;;54.50;22.27;;;1.10;99.90;;;;;;5029258;28;20053;-49
2023/12/05 07:57:04;;;;;;;53.15;22.08;;;1.40;99.90;;;;;;5029683;28;20095;-50
2023/12/05 07:59:30;;;;;;;58.65;23.42;;;1.50;99.90;;;;;;5029717;28;20067;-51
2023/12/05 08:01:55;;;;;;;63.20;23.33;;;1.20;99.90;;;;;;5019202;28;20075;-50
2023/12/05 08:04:21;;;;;;;50.47;23.10;;;1.10;99.90;;;;;;5022009;28;20042;-53
2023/12/05 08:06:50;;;;;;;54.53;22.35;;;1.50;99.90;;;;;;5019793;28;20432;-49
2023/12/05 08:09:16;;;;;;;56.33;22.00;;;1.10;99.90;;;;;;5020822;28;20041;-53
2023/12/05 08:11:42;;;;;;;52.95;22.58;;;1.90;99.90;;;;;;5019660;28;20049;-52
2023/12/05 08:14:08;;;;;;;54.97;24.13;;;1.30;99.90;;;;;;5018630;28;20044;-47
2023/12/05 08:16:34;;;;;;;48.33;21.05;;;1.60;99.90;;;;;;5019514;28;20030;-48
2023/12/05 08:19:00;;;;;;;55.75;23.58;;;2.10;99.90;;;;;;5024429;28;20535;-49
2023/12/05 08:21:25;;;;;;;51.85;21.33;;;2.10;99.90;;;;;;5024921;28;20037;-51
2023/12/05 08:23:52;;;;;;;59.67;23.00;;;2.10;99.90;;;;;;5025328;28;20053;-49
2023/12/05 08:26:17;;;;;;;54.75;21.67;;;2.10;99.90;;;;;;5005734;28;20030;-51
2023/12/05 08:28:43;;;;;;;52.78;20.92;;;2.50;99.90;;;;;;5024593;28;20037;-52
2023/12/05 08:31:09;;;;;;;49.10;20.33;;;2.00;99.90;;;;;;5025378;28;20045;-51
2023/12/05 08:33:34;;;;;;;56.30;22.48;;;1.50;99.90;;;;;;5025400;28;20041;-51
2023/12/05 08:36:01;;;;;;;58.70;24.20;;;2.10;99.90;;;;;;5024817;28;20048;-47
2023/12/05 08:38:27;;;;;;;54.03;22.25;;;1.30;99.90;;;;;;5025871;28;20112;-48
2023/12/05 08:40:52;;;;;;;56.90;23.45;;;1.80;99.90;;;;;;5026050;28;20033;-52
2023/12/05 08:43:18;;;;;;;58.45;23.08;;;1.50;99.90;;;;;;5025175;28;20044;-51
2023/12/05 08:45:44;;;;;;;51.72;23.02;;;1.90;99.90;;;;;;5025678;28;20389;-51
2023/12/05 08:48:10;;;;;;;48.45;21.15;;;1.90;99.90;;;;;;5023596;28;20037;-48
2023/12/05 08:50:36;;;;;;;51.88;22.65;;;1.10;99.90;;;;;;5023928;28;20034;-49
2023/12/05 08:53:02;;;;;;;56.58;22.25;;;1.80;99.90;;;;;;5021049;28;20136;-50
2023/12/05 08:55:28;;;;;;;53.13;21.15;;;1.40;99.90;;;;;;5022483;28;20041;-48
2023/12/05 08:57:55;;;;;;;51.78;21.80;;;1.20;99.90;;;;;;5023923;28;20042;-49
2023/12/05 09:00:21;;;;;;;58.25;24.15;;;2.10;99.90;;;;;;5022483;28;20037;-50
2023/12/05 09:02:47;;;;;;;60.85;24.92;;;1.20;99.90;;;;;;5022647;28;20037;-51
2023/12/05 09:05:12;;;;;;;59.05;23.38;;;2.10;99.90;;;;;;5023937;28;20079;-54
2023/12/05 09:07:39;;;;;;;58.20;23.30;;;1.30;99.90;;;;;;5022806;28;21500;-52
2023/12/05 09:10:05;;;;;;;51.58;20.95;;;1.40;99.90;;;;;;5022064;28;20041;-52
2023/12/05 09:12:32;;;;;;;47.97;21.35;;;1.20;99.90;;;;;;5047459;28;20605;-51
2023/12/05 09:14:58;;;;;;;60.88;25.17;;;2.10;99.90;;;;;;5024066;28;20045;-49
2023/12/05 09:17:24;;;;;;;55.55;22.33;;;1.40;99.90;;;;;;5024270;28;20083;-49
2023/12/05 09:19:50;;;;;;;57.15;23.52;;;2.10;99.90;;;;;;5021159;28;20053;-48
2023/12/05 09:22:17;;;;;;;55.95;21.92;;;2.10;99.90;;;;;;5022720;28;20075;-49
2023/12/05 09:24:43;;;;;;;54.53;21.92;;;2.10;99.90;;;;;;5022999;28;20324;-49
2023/12/05 09:27:08;;;;;;;57.75;23.10;;;1.20;99.90;;;;;;5021357;28;20138;-48
2023/12/05 09:29:34;;;;;;;54.47;21.45;;;2.10;99.90;;;;;;5023529;28;20033;-49
2023/12/05 09:32:00;;;;;;;53.53;22.45;;;2.10;99.90;;;;;;5023573;28;20156;-50
2023/12/05 09:34:26;;;;;;;50.38;20.83;;;1.90;99.90;;;;;;5024025;28;20461;-47
2023/12/05 09:36:51;;;;;;;57.92;21.80;;;2.20;99.90;;;;;;5024206;28;20037;-52
2023/12/05 09:39:17;;;;;;;54.85;22.50;;;2.20;99.90;;;;;;5024153;28;20041;-46
2023/12/05 09:41:49;;;;;;;51.00;21.88;;;1.40;99.90;;;;;;5024572;28;20029;-47
2023/12/05 09:44:21;;;;;;;55.72;22.65;;;1.80;99.90;;;;;;5021901;28;20041;-51
2023/12/05 09:46:51;;;;;;;55.67;22.92;;;1.50;99.90;;;;;;5020817;28;20026;-47
2023/12/05 09:49:18;;;;;;;54.90;22.55;;;1.40;99.90;;;;;;5023052;28;20033;-47
2023/12/05 09:51:46;;;;;;;64.07;24.98;;;1.50;99.90;;;;;;5022109;28;20035;-47
2023/12/05 09:54:13;;;;;;;54.60;22.25;;;1.40;99.90;;;;;;5022840;28;20045;-47
2023/12/05 09:56:39;;;;;;;53.42;22.85;;;2.20;99.90;;;;;;5021343;28;20081;-47
2023/12/05 09:59:05;;;;;;;60.50;23.00;;;2.10;99.90;;;;;;5021961;28;20446;-50
2023/12/05 10:01:34;;;;;;;61.08;23.75;;;1.70;99.90;;;;;;5016756;28;20410;-48
2023/12/05 10:04:01;;;;;;;54.33;22.92;;;1.30;99.90;;;;;;5020517;28;20124;-50
2023/12/05 10:06:29;;;;;;;52.67;22.33;;;1.50;99.90;;;;;;5022109;28;20554;-52
2023/12/05 10:08:56;;;;;;;54.95;22.52;;;2.20;99.90;;;;;;5021626;28;20045;-49
2023/12/05 10:11:24;;;;;;;55.70;22.05;;;2.00;99.90;;;;;;5022559;28;20132;-49
2023/12/05 10:13:50;;;;;;;52.95;22.02;;;1.30;99.90;;;;;;5023515;28;20040;-52
2023/12/05 10:16:17;;;;;;;60.28;23.75;;;1.50;99.90;;;;;;5022137;28;20045;-51
2023/12/05 10:18:44;;;;;;;51.05;21.75;;;2.30;99.90;;;;;;5023252;28;20052;-51
2023/12/05 10:21:10;;;;;;;55.95;23.73;;;1.70;99.90;;;;;;5022653;28;20065;-51
2023/12/05 10:23:36;;;;;;;59.47;24.67;;;2.00;99.90;;;;;;5022251;28;20063;-49
2023/12/05 10:26:03;;;;;;;60.15;23.58;;;2.00;99.90;;;;;;5024118;28;20029;-48
2023/12/05 10:28:28;;;;;;;51.10;22.48;;;1.90;99.90;;;;;;5023403;28;20044;-52
2023/12/05 10:30:55;;;;;;;51.42;20.98;;;1.80;99.90;;;;;;5022811;28;20474;-51
2023/12/05 10:33:21;;;;;;;51.65;21.67;;;1.60;99.90;;;;;;5022323;28;20049;-50
2023/12/05 10:35:47;;;;;;;53.20;22.65;;;2.10;99.90;;;;;;5023529;28;20037;-50
2023/12/05 10:38:17;;;;;;;53.03;22.13;;;1.50;99.90;;;;;;5026428;28;20045;-50
2023/12/05 10:40:56;;;;;;;62.03;26.60;;;1.90;99.90;;;;;;5029054;28;20056;-51
2023/12/05 10:43:23;;;;;;;53.95;21.25;;;2.40;99.90;;;;;;5029168;28;20042;-48
2023/12/05 10:45:50;;;;;;;57.35;23.23;;;1.70;99.90;;;;;;5029554;28;20068;-48
2023/12/05 10:48:17;;;;;;;50.28;21.10;;;2.30;99.90;;;;;;5026017;28;20049;-49
2023/12/05 10:50:45;;;;;;;56.40;23.98;;;1.90;99.90;;;;;;5029375;28;20037;-49
2023/12/05 10:53:11;;;;;;;52.80;22.30;;;2.20;99.90;;;;;;5029313;28;20077;-51
2023/12/05 10:55:37;;;;;;;47.42;21.35;;;2.20;99.90;;;;;;5030660;28;20065;-51
2023/12/05 10:58:03;;;;;;;50.45;20.40;;;2.10;99.90;;;;;;5030826;28;20053;-50
2023/12/05 11:00:29;;;;;;;52.25;22.05;;;3.20;99.90;;;;;;5029586;28;20042;-48
2023/12/05 11:02:56;;;;;;;47.97;21.70;;;2.50;99.90;;;;;;5030107;28;20034;-50
2023/12/05 11:05:22;;;;;;;46.53;21.02;;;2.00;99.90;;;;;;5030062;28;20374;-51
2023/12/05 11:07:48;;;;;;;46.88;20.38;;;1.60;99.90;;;;;;5030858;28;20091;-50
2023/12/05 11:10:16;;;;;;;48.67;21.13;;;2.50;99.90;;;;;;5030134;28;20041;-53
2023/12/05 11:12:44;;;;;;;42.67;19.90;;;2.00;99.90;;;;;;5030101;28;20069;-51
2023/12/05 11:15:15;;;;;;;48.90;19.83;;;1.80;99.90;;;;;;5030226;28;20041;-52
2023/12/05 11:17:48;;;;;;;42.30;19.13;;;1.80;99.90;;;;;;5030640;28;20056;-48
2023/12/05 11:20:23;;;;;;;42.08;19.58;;;1.80;99.90;;;;;;5028864;28;20069;-47
2023/12/05 11:23:22;;;;;;;44.63;19.20;;;2.40;99.90;;;;;;5026514;28;20037;-47
2023/12/05 11:26:07;;;;;;;49.40;20.90;;;2.50;99.90;;;;;;5028952;28;20076;-46
2023/12/05 11:28:58;;;;;;;44.33;19.13;;;1.70;99.90;;;;;;5029869;28;20508;-49
2023/12/05 11:31:56;;;;;;;49.85;20.38;;;1.90;99.90;;;;;;5030019;28;20045;-48
2023/12/05 11:34:37;;;;;;;46.72;20.20;;;1.70;99.90;;;;;;5024292;28;20497;-48
2023/12/05 11:37:18;;;;;;;49.75;21.08;;;2.10;99.90;;;;;;5029783;28;20042;-50
2023/12/05 11:39:45;;;;;;;48.63;20.52;;;1.60;99.90;;;;;;5021340;28;20073;-52
2023/12/05 11:42:14;;;;;;;47.85;20.98;;;1.70;99.90;;;;;;5027617;28;20116;-51
2023/12/05 11:44:43;;;;;;;54.67;21.75;;;2.40;99.90;;;;;;5027473;28;20049;-49
2023/12/05 11:47:28;;;;;;;55.80;23.55;;;0.50;99.90;;;;;;5026745;28;20108;-51
2023/12/05 11:49:58;;;;;;;51.63;22.90;;;1.50;99.90;;;;;;5025836;28;20033;-52
2023/12/05 11:52:27;;;;;;;54.92;21.65;;;1.60;99.90;;;;;;5028114;28;20050;-50
2023/12/05 11:54:53;;;;;;;49.35;22.25;;;1.70;99.90;;;;;;5030487;28;20038;-49
2023/12/05 11:57:23;;;;;;;47.13;21.33;;;1.50;99.90;;;;;;5032189;28;20124;-53
2023/12/05 11:59:54;;;;;;;45.20;20.30;;;2.30;99.90;;;;;;5030813;28;20504;-47
2023/12/05 12:02:31;;;;;;;52.35;22.70;;;1.40;99.90;;;;;;5029797;28;20042;-48
2023/12/05 12:05:07;;;;;;;47.38;20.75;;;2.30;99.90;;;;;;5029319;28;20124;-52
2023/12/05 12:07:52;;;;;;;51.15;22.05;;;2.30;99.90;;;;;;5030243;28;20099;-51
2023/12/05 12:10:19;;;;;;;46.53;19.92;;;2.30;99.90;;;;;;5030744;28;20555;-51
2023/12/05 12:12:45;;;;;;;52.38;22.05;;;2.30;99.90;;;;;;5029252;28;20057;-47
2023/12/05 12:15:15;;;;;;;51.83;23.00;;;2.20;99.90;;;;;;5028747;28;20068;-50
2023/12/05 12:17:44;;;;;;;49.97;22.17;;;2.20;99.90;;;;;;5028908;28;20092;-51
2023/12/05 12:20:17;;;;;;;48.95;20.83;;;2.30;99.90;;;;;;5025185;28;20498;-52
2023/12/05 12:22:48;;;;;;;51.30;21.23;;;1.70;99.90;;;;;;5027684;28;20045;-49
2023/12/05 12:25:14;;;;;;;45.50;20.42;;;2.20;99.90;;;;;;5028449;28;20046;-51
2023/12/05 12:27:41;;;;;;;47.38;20.50;;;2.30;99.90;;;;;;5026789;28;20037;-49
2023/12/05 12:30:08;;;;;;;48.80;21.17;;;2.20;99.90;;;;;;5029686;28;20083;-49
2023/12/05 12:32:38;;;;;;;47.88;20.55;;;1.60;99.90;;;;;;5028088;28;20088;-49
2023/12/05 12:35:05;;;;;;;45.58;21.25;;;1.30;99.90;;;;;;5030460;28;20068;-52